sensor_id;sensor_type;location;lat;lon;timestamp;P1;durP1;ratioP1;P2;durP2;ratioP2
78344;SDS011;67620;51.134;6.548;2023-02-28T00:00:24;7.45;;;5.43;;
78344;SDS011;67620;51.134;6.548;2023-02-28T00:02:50;8.07;;;5.38;;
78344;SDS011;67620;51.134;6.548;2023-02-28T00:05:17;9.80;;;5.20;;
78344;SDS011;67620;51.134;6.548;2023-02-28T00:07:45;9.18;;;5.68;;
78344;SDS011;67620;51.134;6.548;2023-02-28T00:10:13;7.78;;;5.25;;
78344;SDS011;67620;51.134;6.548;2023-02-28T00:12:40;9.85;;;5.50;;
78344;SDS011;67620;51.134;6.548;2023-02-28T00:15:07;10.20;;;5.20;;
78344;SDS011;67620;51.134;6.548;2023-02-28T00:17:34;11.93;;;5.70;;
78344;SDS011;67620;51.134;6.548;2023-02-28T00:19:59;11.13;;;5.93;;
78344;SDS011;67620;51.134;6.548;2023-02-28T00:22:28;8.48;;;5.68;;
78344;SDS011;67620;51.134;6.548;2023-02-28T00:24:53;10.80;;;5.32;;
78344;SDS011;67620;51.134;6.548;2023-02-28T00:27:19;8.25;;;5.22;;
78344;SDS011;67620;51.134;6.548;2023-02-28T00:29:46;9.40;;;5.28;;
78344;SDS011;67620;51.134;6.548;2023-02-28T00:32:11;8.80;;;5.07;;
78344;SDS011;67620;51.134;6.548;2023-02-28T00:34:37;8.85;;;4.97;;
78344;SDS011;67620;51.134;6.548;2023-02-28T00:37:04;6.55;;;4.80;;
78344;SDS011;67620;51.134;6.548;2023-02-28T00:39:30;6.57;;;4.60;;
78344;SDS011;67620;51.134;6.548;2023-02-28T00:41:56;9.40;;;5.10;;
78344;SDS011;67620;51.134;6.548;2023-02-28T00:44:21;7.45;;;4.82;;
78344;SDS011;67620;51.134;6.548;2023-02-28T00:46:47;9.90;;;5.10;;
78344;SDS011;67620;51.134;6.548;2023-02-28T00:49:12;8.15;;;4.90;;
78344;SDS011;67620;51.134;6.548;2023-02-28T00:51:38;8.32;;;4.93;;
78344;SDS011;67620;51.134;6.548;2023-02-28T00:54:03;10.82;;;4.60;;
78344;SDS011;67620;51.134;6.548;2023-02-28T00:56:29;10.35;;;5.45;;
78344;SDS011;67620;51.134;6.548;2023-02-28T00:58:54;9.93;;;5.13;;
78344;SDS011;67620;51.134;6.548;2023-02-28T01:01:20;7.10;;;5.40;;
78344;SDS011;67620;51.134;6.548;2023-02-28T01:03:45;7.22;;;4.93;;
78344;SDS011;67620;51.134;6.548;2023-02-28T01:06:11;9.55;;;5.72;;
78344;SDS011;67620;51.134;6.548;2023-02-28T01:08:36;8.50;;;4.65;;
78344;SDS011;67620;51.134;6.548;2023-02-28T01:11:09;7.55;;;4.90;;
78344;SDS011;67620;51.134;6.548;2023-02-28T01:13:36;9.77;;;5.03;;
78344;SDS011;67620;51.134;6.548;2023-02-28T01:16:02;6.18;;;4.50;;
78344;SDS011;67620;51.134;6.548;2023-02-28T01:18:28;4.20;;;3.65;;
78344;SDS011;67620;51.134;6.548;2023-02-28T01:20:54;9.13;;;4.30;;
78344;SDS011;67620;51.134;6.548;2023-02-28T01:23:20;7.20;;;4.07;;
78344;SDS011;67620;51.134;6.548;2023-02-28T01:25:48;6.28;;;4.18;;
78344;SDS011;67620;51.134;6.548;2023-02-28T01:28:16;5.82;;;3.70;;
78344;SDS011;67620;51.134;6.548;2023-02-28T01:30:42;4.97;;;3.05;;
78344;SDS011;67620;51.134;6.548;2023-02-28T01:33:07;5.45;;;3.35;;
78344;SDS011;67620;51.134;6.548;2023-02-28T01:35:34;5.65;;;3.00;;
78344;SDS011;67620;51.134;6.548;2023-02-28T01:38:00;7.00;;;3.13;;
78344;SDS011;67620;51.134;6.548;2023-02-28T01:42:52;4.18;;;2.95;;
78344;SDS011;67620;51.134;6.548;2023-02-28T01:47:50;6.80;;;2.97;;
78344;SDS011;67620;51.134;6.548;2023-02-28T01:50:19;4.93;;;3.03;;
78344;SDS011;67620;51.134;6.548;2023-02-28T01:52:48;8.40;;;3.22;;
78344;SDS011;67620;51.134;6.548;2023-02-28T01:55:15;6.85;;;4.07;;
78344;SDS011;67620;51.134;6.548;2023-02-28T01:57:45;5.57;;;3.75;;
78344;SDS011;67620;51.134;6.548;2023-02-28T02:00:14;6.90;;;4.47;;
78344;SDS011;67620;51.134;6.548;2023-02-28T02:02:42;5.68;;;3.70;;
78344;SDS011;67620;51.134;6.548;2023-02-28T02:05:16;6.82;;;4.00;;
78344;SDS011;67620;51.134;6.548;2023-02-28T02:07:42;6.72;;;4.38;;
78344;SDS011;67620;51.134;6.548;2023-02-28T02:12:52;9.20;;;4.13;;
78344;SDS011;67620;51.134;6.548;2023-02-28T02:17:57;10.15;;;4.55;;
78344;SDS011;67620;51.134;6.548;2023-02-28T02:20:57;6.43;;;3.88;;
78344;SDS011;67620;51.134;6.548;2023-02-28T02:23:50;8.13;;;4.32;;
78344;SDS011;67620;51.134;6.548;2023-02-28T02:38:08;8.07;;;5.30;;
78344;SDS011;67620;51.134;6.548;2023-02-28T02:41:02;9.77;;;5.32;;
78344;SDS011;67620;51.134;6.548;2023-02-28T02:43:44;10.02;;;4.47;;
78344;SDS011;67620;51.134;6.548;2023-02-28T02:46:41;9.50;;;5.40;;
78344;SDS011;67620;51.134;6.548;2023-02-28T02:49:10;9.75;;;5.18;;
78344;SDS011;67620;51.134;6.548;2023-02-28T02:51:41;8.65;;;4.97;;
78344;SDS011;67620;51.134;6.548;2023-02-28T02:54:11;10.05;;;5.40;;
78344;SDS011;67620;51.134;6.548;2023-02-28T02:56:45;10.00;;;5.65;;
78344;SDS011;67620;51.134;6.548;2023-02-28T02:59:13;8.35;;;5.47;;
78344;SDS011;67620;51.134;6.548;2023-02-28T03:01:46;8.02;;;5.55;;
78344;SDS011;67620;51.134;6.548;2023-02-28T03:04:19;8.43;;;5.65;;
78344;SDS011;67620;51.134;6.548;2023-02-28T03:06:47;8.68;;;5.18;;
78344;SDS011;67620;51.134;6.548;2023-02-28T03:09:14;12.07;;;5.55;;
78344;SDS011;67620;51.134;6.548;2023-02-28T03:11:40;8.52;;;5.38;;
78344;SDS011;67620;51.134;6.548;2023-02-28T03:14:22;7.05;;;5.25;;
78344;SDS011;67620;51.134;6.548;2023-02-28T03:17:00;11.48;;;5.78;;
78344;SDS011;67620;51.134;6.548;2023-02-28T03:22:43;8.32;;;4.85;;
78344;SDS011;67620;51.134;6.548;2023-02-28T03:25:27;8.02;;;5.40;;
78344;SDS011;67620;51.134;6.548;2023-02-28T03:28:05;7.93;;;4.97;;
78344;SDS011;67620;51.134;6.548;2023-02-28T03:36:10;9.50;;;5.03;;
78344;SDS011;67620;51.134;6.548;2023-02-28T03:38:45;8.75;;;4.65;;
78344;SDS011;67620;51.134;6.548;2023-02-28T03:41:17;8.88;;;4.75;;
78344;SDS011;67620;51.134;6.548;2023-02-28T03:43:51;7.47;;;4.65;;
78344;SDS011;67620;51.134;6.548;2023-02-28T03:46:43;9.40;;;5.10;;
78344;SDS011;67620;51.134;6.548;2023-02-28T03:49:19;7.95;;;5.05;;
78344;SDS011;67620;51.134;6.548;2023-02-28T03:51:47;7.75;;;5.15;;
78344;SDS011;67620;51.134;6.548;2023-02-28T03:54:17;6.32;;;4.53;;
78344;SDS011;67620;51.134;6.548;2023-02-28T03:56:51;8.38;;;4.78;;
78344;SDS011;67620;51.134;6.548;2023-02-28T03:59:37;8.52;;;4.95;;
78344;SDS011;67620;51.134;6.548;2023-02-28T04:02:08;6.43;;;4.47;;
78344;SDS011;67620;51.134;6.548;2023-02-28T04:04:34;6.80;;;4.32;;
78344;SDS011;67620;51.134;6.548;2023-02-28T04:07:04;7.47;;;4.38;;
78344;SDS011;67620;51.134;6.548;2023-02-28T04:09:31;8.73;;;4.53;;
78344;SDS011;67620;51.134;6.548;2023-02-28T04:11:57;7.57;;;4.45;;
78344;SDS011;67620;51.134;6.548;2023-02-28T04:14:23;9.48;;;4.50;;
78344;SDS011;67620;51.134;6.548;2023-02-28T04:16:49;6.72;;;4.38;;
78344;SDS011;67620;51.134;6.548;2023-02-28T04:19:15;6.90;;;4.75;;
78344;SDS011;67620;51.134;6.548;2023-02-28T04:21:42;6.10;;;3.95;;
78344;SDS011;67620;51.134;6.548;2023-02-28T04:24:10;7.45;;;4.18;;
78344;SDS011;67620;51.134;6.548;2023-02-28T04:26:41;8.00;;;4.53;;
78344;SDS011;67620;51.134;6.548;2023-02-28T04:29:09;11.18;;;4.65;;
78344;SDS011;67620;51.134;6.548;2023-02-28T04:31:36;8.43;;;4.40;;
78344;SDS011;67620;51.134;6.548;2023-02-28T04:34:02;7.28;;;4.43;;
78344;SDS011;67620;51.134;6.548;2023-02-28T04:36:28;9.60;;;4.45;;
78344;SDS011;67620;51.134;6.548;2023-02-28T04:38:54;7.10;;;4.18;;
78344;SDS011;67620;51.134;6.548;2023-02-28T04:41:20;6.88;;;4.20;;
78344;SDS011;67620;51.134;6.548;2023-02-28T04:43:46;5.78;;;4.22;;
78344;SDS011;67620;51.134;6.548;2023-02-28T04:46:12;5.63;;;3.47;;
78344;SDS011;67620;51.134;6.548;2023-02-28T04:48:38;6.70;;;4.30;;
78344;SDS011;67620;51.134;6.548;2023-02-28T04:53:31;7.85;;;4.20;;
78344;SDS011;67620;51.134;6.548;2023-02-28T04:55:56;10.55;;;4.45;;
78344;SDS011;67620;51.134;6.548;2023-02-28T04:58:22;6.82;;;3.53;;
78344;SDS011;67620;51.134;6.548;2023-02-28T05:00:49;5.85;;;3.63;;
78344;SDS011;67620;51.134;6.548;2023-02-28T05:05:40;5.80;;;3.72;;
78344;SDS011;67620;51.134;6.548;2023-02-28T05:08:06;7.97;;;4.07;;
78344;SDS011;67620;51.134;6.548;2023-02-28T05:10:31;7.35;;;3.97;;
78344;SDS011;67620;51.134;6.548;2023-02-28T05:12:57;5.90;;;3.92;;
78344;SDS011;67620;51.134;6.548;2023-02-28T05:15:23;6.55;;;4.35;;
78344;SDS011;67620;51.134;6.548;2023-02-28T05:17:49;7.70;;;4.35;;
78344;SDS011;67620;51.134;6.548;2023-02-28T05:20:14;6.30;;;4.07;;
78344;SDS011;67620;51.134;6.548;2023-02-28T05:22:40;6.78;;;4.55;;
78344;SDS011;67620;51.134;6.548;2023-02-28T05:25:06;7.80;;;4.32;;
78344;SDS011;67620;51.134;6.548;2023-02-28T05:27:38;6.63;;;4.28;;
78344;SDS011;67620;51.134;6.548;2023-02-28T05:30:04;6.65;;;4.30;;
78344;SDS011;67620;51.134;6.548;2023-02-28T05:32:31;9.45;;;4.43;;
78344;SDS011;67620;51.134;6.548;2023-02-28T05:34:56;9.90;;;4.45;;
78344;SDS011;67620;51.134;6.548;2023-02-28T05:37:22;37.17;;;17.35;;
78344;SDS011;67620;51.134;6.548;2023-02-28T05:39:47;31.10;;;15.68;;
78344;SDS011;67620;51.134;6.548;2023-02-28T05:42:13;20.45;;;13.18;;
78344;SDS011;67620;51.134;6.548;2023-02-28T05:44:38;6.88;;;4.25;;
78344;SDS011;67620;51.134;6.548;2023-02-28T05:47:04;8.13;;;4.00;;
78344;SDS011;67620;51.134;6.548;2023-02-28T05:49:29;6.90;;;4.57;;
78344;SDS011;67620;51.134;6.548;2023-02-28T05:51:55;7.95;;;3.78;;
78344;SDS011;67620;51.134;6.548;2023-02-28T05:54:20;24.17;;;12.98;;
78344;SDS011;67620;51.134;6.548;2023-02-28T05:56:46;16.27;;;10.13;;
78344;SDS011;67620;51.134;6.548;2023-02-28T05:59:12;7.00;;;4.32;;
78344;SDS011;67620;51.134;6.548;2023-02-28T06:01:41;7.00;;;4.20;;
78344;SDS011;67620;51.134;6.548;2023-02-28T06:04:15;7.68;;;4.28;;
78344;SDS011;67620;51.134;6.548;2023-02-28T06:06:44;5.65;;;4.07;;
78344;SDS011;67620;51.134;6.548;2023-02-28T06:11:36;7.40;;;4.07;;
78344;SDS011;67620;51.134;6.548;2023-02-28T06:14:02;6.65;;;3.95;;
78344;SDS011;67620;51.134;6.548;2023-02-28T06:16:28;6.10;;;3.80;;
78344;SDS011;67620;51.134;6.548;2023-02-28T06:18:56;7.82;;;3.63;;
78344;SDS011;67620;51.134;6.548;2023-02-28T06:21:23;5.72;;;3.50;;
78344;SDS011;67620;51.134;6.548;2023-02-28T06:23:49;5.28;;;3.55;;
78344;SDS011;67620;51.134;6.548;2023-02-28T06:26:15;6.15;;;3.60;;
78344;SDS011;67620;51.134;6.548;2023-02-28T06:28:41;6.28;;;3.83;;
78344;SDS011;67620;51.134;6.548;2023-02-28T06:31:10;5.45;;;3.70;;
78344;SDS011;67620;51.134;6.548;2023-02-28T06:33:37;7.35;;;4.00;;
78344;SDS011;67620;51.134;6.548;2023-02-28T06:36:04;8.48;;;4.38;;
78344;SDS011;67620;51.134;6.548;2023-02-28T06:38:30;6.75;;;3.70;;
78344;SDS011;67620;51.134;6.548;2023-02-28T06:40:57;7.13;;;3.88;;
78344;SDS011;67620;51.134;6.548;2023-02-28T06:43:24;8.45;;;3.78;;
78344;SDS011;67620;51.134;6.548;2023-02-28T06:45:54;6.65;;;3.85;;
78344;SDS011;67620;51.134;6.548;2023-02-28T06:48:20;8.63;;;3.85;;
78344;SDS011;67620;51.134;6.548;2023-02-28T06:50:46;6.40;;;4.10;;
78344;SDS011;67620;51.134;6.548;2023-02-28T06:53:12;5.43;;;3.80;;
78344;SDS011;67620;51.134;6.548;2023-02-28T06:55:38;7.57;;;4.25;;
78344;SDS011;67620;51.134;6.548;2023-02-28T06:58:04;7.55;;;4.55;;
78344;SDS011;67620;51.134;6.548;2023-02-28T07:00:40;9.38;;;4.57;;
78344;SDS011;67620;51.134;6.548;2023-02-28T07:03:08;6.70;;;4.45;;
78344;SDS011;67620;51.134;6.548;2023-02-28T07:05:35;8.55;;;4.85;;
78344;SDS011;67620;51.134;6.548;2023-02-28T07:08:02;9.00;;;5.28;;
78344;SDS011;67620;51.134;6.548;2023-02-28T07:10:28;9.82;;;6.15;;
78344;SDS011;67620;51.134;6.548;2023-02-28T07:12:54;12.63;;;5.60;;
78344;SDS011;67620;51.134;6.548;2023-02-28T07:15:20;7.90;;;4.90;;
78344;SDS011;67620;51.134;6.548;2023-02-28T07:17:45;8.15;;;4.63;;
78344;SDS011;67620;51.134;6.548;2023-02-28T07:20:11;9.02;;;4.72;;
78344;SDS011;67620;51.134;6.548;2023-02-28T07:22:37;7.95;;;4.72;;
78344;SDS011;67620;51.134;6.548;2023-02-28T07:25:03;7.00;;;4.15;;
78344;SDS011;67620;51.134;6.548;2023-02-28T07:27:30;9.43;;;4.45;;
78344;SDS011;67620;51.134;6.548;2023-02-28T07:29:55;6.60;;;4.55;;
78344;SDS011;67620;51.134;6.548;2023-02-28T07:32:21;7.25;;;4.53;;
78344;SDS011;67620;51.134;6.548;2023-02-28T07:34:47;8.65;;;4.30;;
78344;SDS011;67620;51.134;6.548;2023-02-28T07:37:13;7.90;;;4.80;;
78344;SDS011;67620;51.134;6.548;2023-02-28T07:39:39;10.35;;;4.50;;
78344;SDS011;67620;51.134;6.548;2023-02-28T07:42:07;7.38;;;4.25;;
78344;SDS011;67620;51.134;6.548;2023-02-28T07:44:36;8.70;;;4.30;;
78344;SDS011;67620;51.134;6.548;2023-02-28T07:47:05;7.03;;;4.00;;
78344;SDS011;67620;51.134;6.548;2023-02-28T07:51:57;7.20;;;4.32;;
78344;SDS011;67620;51.134;6.548;2023-02-28T07:54:22;7.00;;;3.92;;
78344;SDS011;67620;51.134;6.548;2023-02-28T07:56:48;6.90;;;3.88;;
78344;SDS011;67620;51.134;6.548;2023-02-28T07:59:13;8.45;;;3.72;;
78344;SDS011;67620;51.134;6.548;2023-02-28T08:01:39;9.18;;;3.92;;
78344;SDS011;67620;51.134;6.548;2023-02-28T08:04:04;4.50;;;3.33;;
78344;SDS011;67620;51.134;6.548;2023-02-28T08:06:30;5.75;;;3.38;;
78344;SDS011;67620;51.134;6.548;2023-02-28T08:08:55;6.63;;;3.00;;
78344;SDS011;67620;51.134;6.548;2023-02-28T08:11:21;6.63;;;3.17;;
78344;SDS011;67620;51.134;6.548;2023-02-28T08:13:47;3.20;;;2.28;;
78344;SDS011;67620;51.134;6.548;2023-02-28T08:16:13;3.97;;;2.30;;
78344;SDS011;67620;51.134;6.548;2023-02-28T08:18:42;3.58;;;2.05;;
78344;SDS011;67620;51.134;6.548;2023-02-28T08:21:08;4.18;;;2.13;;
78344;SDS011;67620;51.134;6.548;2023-02-28T08:23:34;3.13;;;1.92;;
78344;SDS011;67620;51.134;6.548;2023-02-28T08:26:00;5.28;;;2.00;;
78344;SDS011;67620;51.134;6.548;2023-02-28T08:28:26;3.65;;;1.70;;
78344;SDS011;67620;51.134;6.548;2023-02-28T08:30:52;4.35;;;1.85;;
78344;SDS011;67620;51.134;6.548;2023-02-28T08:33:18;3.42;;;2.22;;
78344;SDS011;67620;51.134;6.548;2023-02-28T08:35:44;2.20;;;1.75;;
78344;SDS011;67620;51.134;6.548;2023-02-28T08:38:09;2.72;;;1.80;;
78344;SDS011;67620;51.134;6.548;2023-02-28T08:40:35;3.15;;;1.77;;
78344;SDS011;67620;51.134;6.548;2023-02-28T08:43:00;4.63;;;1.77;;
78344;SDS011;67620;51.134;6.548;2023-02-28T08:45:26;2.55;;;1.67;;
78344;SDS011;67620;51.134;6.548;2023-02-28T08:47:51;2.42;;;1.80;;
78344;SDS011;67620;51.134;6.548;2023-02-28T08:50:19;3.00;;;1.60;;
78344;SDS011;67620;51.134;6.548;2023-02-28T08:52:44;3.65;;;1.85;;
78344;SDS011;67620;51.134;6.548;2023-02-28T08:55:10;2.83;;;1.67;;
78344;SDS011;67620;51.134;6.548;2023-02-28T08:57:35;3.22;;;1.60;;
78344;SDS011;67620;51.134;6.548;2023-02-28T09:00:02;2.25;;;1.73;;
78344;SDS011;67620;51.134;6.548;2023-02-28T09:02:29;2.85;;;1.73;;
78344;SDS011;67620;51.134;6.548;2023-02-28T09:04:57;2.80;;;1.73;;
78344;SDS011;67620;51.134;6.548;2023-02-28T09:09:49;2.63;;;1.50;;
78344;SDS011;67620;51.134;6.548;2023-02-28T09:12:26;3.78;;;1.15;;
78344;SDS011;67620;51.134;6.548;2023-02-28T09:14:56;3.35;;;1.38;;
78344;SDS011;67620;51.134;6.548;2023-02-28T09:17:22;3.67;;;1.80;;
78344;SDS011;67620;51.134;6.548;2023-02-28T09:19:48;2.42;;;1.65;;
78344;SDS011;67620;51.134;6.548;2023-02-28T09:22:14;2.38;;;1.55;;
78344;SDS011;67620;51.134;6.548;2023-02-28T09:24:39;2.58;;;1.60;;
78344;SDS011;67620;51.134;6.548;2023-02-28T09:27:05;2.47;;;1.35;;
78344;SDS011;67620;51.134;6.548;2023-02-28T09:29:31;3.72;;;1.60;;
78344;SDS011;67620;51.134;6.548;2023-02-28T09:31:57;1.88;;;1.23;;
78344;SDS011;67620;51.134;6.548;2023-02-28T09:34:24;3.47;;;1.73;;
78344;SDS011;67620;51.134;6.548;2023-02-28T09:36:50;2.75;;;1.13;;
78344;SDS011;67620;51.134;6.548;2023-02-28T09:39:19;2.40;;;1.60;;
78344;SDS011;67620;51.134;6.548;2023-02-28T09:41:47;2.05;;;1.38;;
78344;SDS011;67620;51.134;6.548;2023-02-28T09:44:36;2.60;;;1.33;;
78344;SDS011;67620;51.134;6.548;2023-02-28T09:47:14;3.08;;;1.30;;
78344;SDS011;67620;51.134;6.548;2023-02-28T09:49:58;2.22;;;1.30;;
78344;SDS011;67620;51.134;6.548;2023-02-28T09:52:36;3.60;;;1.45;;
78344;SDS011;67620;51.134;6.548;2023-02-28T09:55:15;1.70;;;1.20;;
78344;SDS011;67620;51.134;6.548;2023-02-28T09:57:51;2.05;;;1.13;;
78344;SDS011;67620;51.134;6.548;2023-02-28T10:05:24;2.00;;;1.38;;
78344;SDS011;67620;51.134;6.548;2023-02-28T10:08:08;3.28;;;1.40;;
78344;SDS011;67620;51.134;6.548;2023-02-28T10:10:45;2.88;;;1.42;;
78344;SDS011;67620;51.134;6.548;2023-02-28T10:13:16;3.10;;;1.60;;
78344;SDS011;67620;51.134;6.548;2023-02-28T10:15:49;2.92;;;1.30;;
78344;SDS011;67620;51.134;6.548;2023-02-28T10:18:20;5.22;;;1.75;;
78344;SDS011;67620;51.134;6.548;2023-02-28T10:20:49;2.03;;;1.50;;
78344;SDS011;67620;51.134;6.548;2023-02-28T10:23:20;3.47;;;1.70;;
78344;SDS011;67620;51.134;6.548;2023-02-28T10:26:11;2.35;;;1.42;;
78344;SDS011;67620;51.134;6.548;2023-02-28T10:28:38;2.38;;;1.38;;
78344;SDS011;67620;51.134;6.548;2023-02-28T10:31:05;2.58;;;1.42;;
78344;SDS011;67620;51.134;6.548;2023-02-28T10:33:34;2.95;;;1.50;;
78344;SDS011;67620;51.134;6.548;2023-02-28T10:38:36;2.42;;;1.42;;
78344;SDS011;67620;51.134;6.548;2023-02-28T10:41:05;2.35;;;1.13;;
78344;SDS011;67620;51.134;6.548;2023-02-28T10:43:32;2.35;;;1.70;;
78344;SDS011;67620;51.134;6.548;2023-02-28T10:48:38;2.40;;;1.58;;
78344;SDS011;67620;51.134;6.548;2023-02-28T10:51:08;2.85;;;1.33;;
78344;SDS011;67620;51.134;6.548;2023-02-28T10:53:45;3.50;;;1.40;;
78344;SDS011;67620;51.134;6.548;2023-02-28T10:58:53;4.13;;;1.67;;
78344;SDS011;67620;51.134;6.548;2023-02-28T11:01:48;2.83;;;1.17;;
78344;SDS011;67620;51.134;6.548;2023-02-28T11:06:56;2.30;;;1.50;;
78344;SDS011;67620;51.134;6.548;2023-02-28T11:09:27;2.90;;;1.50;;
78344;SDS011;67620;51.134;6.548;2023-02-28T11:11:57;2.53;;;1.73;;
78344;SDS011;67620;51.134;6.548;2023-02-28T11:14:30;5.00;;;1.70;;
78344;SDS011;67620;51.134;6.548;2023-02-28T11:17:00;2.90;;;1.23;;
78344;SDS011;67620;51.134;6.548;2023-02-28T11:19:40;2.97;;;1.40;;
78344;SDS011;67620;51.134;6.548;2023-02-28T11:22:10;2.50;;;1.52;;
78344;SDS011;67620;51.134;6.548;2023-02-28T11:24:47;2.83;;;1.70;;
78344;SDS011;67620;51.134;6.548;2023-02-28T11:27:26;3.17;;;1.80;;
78344;SDS011;67620;51.134;6.548;2023-02-28T11:30:35;2.05;;;1.52;;
78344;SDS011;67620;51.134;6.548;2023-02-28T11:33:21;5.53;;;2.10;;
78344;SDS011;67620;51.134;6.548;2023-02-28T11:36:09;2.67;;;1.60;;
78344;SDS011;67620;51.134;6.548;2023-02-28T11:38:38;2.20;;;1.30;;
78344;SDS011;67620;51.134;6.548;2023-02-28T11:41:14;3.72;;;1.60;;
78344;SDS011;67620;51.134;6.548;2023-02-28T11:44:13;3.45;;;1.42;;
78344;SDS011;67620;51.134;6.548;2023-02-28T11:53:00;2.85;;;1.80;;
78344;SDS011;67620;51.134;6.548;2023-02-28T12:01:06;3.58;;;1.80;;
78344;SDS011;67620;51.134;6.548;2023-02-28T12:06:57;2.38;;;1.25;;
78344;SDS011;67620;51.134;6.548;2023-02-28T12:14:59;2.60;;;1.60;;
78344;SDS011;67620;51.134;6.548;2023-02-28T12:28:13;5.65;;;2.28;;
78344;SDS011;67620;51.134;6.548;2023-02-28T12:30:49;2.65;;;1.45;;
78344;SDS011;67620;51.134;6.548;2023-02-28T12:33:45;3.35;;;2.20;;
78344;SDS011;67620;51.134;6.548;2023-02-28T12:36:16;3.75;;;1.75;;
78344;SDS011;67620;51.134;6.548;2023-02-28T12:38:56;3.15;;;1.80;;
78344;SDS011;67620;51.134;6.548;2023-02-28T12:41:47;2.20;;;1.60;;
78344;SDS011;67620;51.134;6.548;2023-02-28T12:44:28;3.22;;;1.85;;
78344;SDS011;67620;51.134;6.548;2023-02-28T12:47:03;2.53;;;1.70;;
78344;SDS011;67620;51.134;6.548;2023-02-28T12:49:34;3.40;;;2.28;;
78344;SDS011;67620;51.134;6.548;2023-02-28T12:52:04;3.80;;;1.80;;
78344;SDS011;67620;51.134;6.548;2023-02-28T12:54:39;3.13;;;1.70;;
78344;SDS011;67620;51.134;6.548;2023-02-28T12:57:31;2.40;;;1.73;;
78344;SDS011;67620;51.134;6.548;2023-02-28T13:00:04;2.97;;;1.58;;
78344;SDS011;67620;51.134;6.548;2023-02-28T13:02:59;2.35;;;1.88;;
78344;SDS011;67620;51.134;6.548;2023-02-28T13:05:56;2.97;;;1.80;;
78344;SDS011;67620;51.134;6.548;2023-02-28T13:08:35;3.03;;;1.70;;
78344;SDS011;67620;51.134;6.548;2023-02-28T13:11:25;3.85;;;2.22;;
78344;SDS011;67620;51.134;6.548;2023-02-28T13:16:24;3.15;;;1.67;;
78344;SDS011;67620;51.134;6.548;2023-02-28T13:18:49;3.15;;;2.20;;
78344;SDS011;67620;51.134;6.548;2023-02-28T13:21:28;3.08;;;2.30;;
78344;SDS011;67620;51.134;6.548;2023-02-28T13:27:10;3.10;;;1.80;;
78344;SDS011;67620;51.134;6.548;2023-02-28T13:34:37;3.28;;;2.35;;
78344;SDS011;67620;51.134;6.548;2023-02-28T13:37:32;3.03;;;1.70;;
78344;SDS011;67620;51.134;6.548;2023-02-28T13:42:36;3.33;;;2.13;;
78344;SDS011;67620;51.134;6.548;2023-02-28T13:53:01;3.22;;;2.13;;
78344;SDS011;67620;51.134;6.548;2023-02-28T14:00:57;5.82;;;2.10;;
78344;SDS011;67620;51.134;6.548;2023-02-28T14:11:46;2.97;;;1.98;;
78344;SDS011;67620;51.134;6.548;2023-02-28T14:16:59;3.72;;;2.20;;
78344;SDS011;67620;51.134;6.548;2023-02-28T14:19:27;2.72;;;2.08;;
78344;SDS011;67620;51.134;6.548;2023-02-28T14:38:37;4.47;;;2.28;;
78344;SDS011;67620;51.134;6.548;2023-02-28T14:41:13;3.22;;;2.15;;
78344;SDS011;67620;51.134;6.548;2023-02-28T14:43:49;4.57;;;2.13;;
78344;SDS011;67620;51.134;6.548;2023-02-28T14:46:16;3.80;;;2.35;;
78344;SDS011;67620;51.134;6.548;2023-02-28T14:48:45;6.05;;;2.35;;
78344;SDS011;67620;51.134;6.548;2023-02-28T14:51:11;3.22;;;2.10;;
78344;SDS011;67620;51.134;6.548;2023-02-28T14:53:42;5.40;;;2.10;;
78344;SDS011;67620;51.134;6.548;2023-02-28T14:56:21;3.67;;;2.13;;
78344;SDS011;67620;51.134;6.548;2023-02-28T14:58:54;5.65;;;2.80;;
78344;SDS011;67620;51.134;6.548;2023-02-28T15:01:21;3.95;;;2.28;;
78344;SDS011;67620;51.134;6.548;2023-02-28T15:03:48;3.55;;;2.40;;
78344;SDS011;67620;51.134;6.548;2023-02-28T15:06:21;5.70;;;2.58;;
78344;SDS011;67620;51.134;6.548;2023-02-28T15:09:05;5.35;;;2.40;;
78344;SDS011;67620;51.134;6.548;2023-02-28T15:11:33;4.63;;;2.60;;
78344;SDS011;67620;51.134;6.548;2023-02-28T15:14:00;5.50;;;2.50;;
78344;SDS011;67620;51.134;6.548;2023-02-28T15:16:36;5.60;;;2.63;;
78344;SDS011;67620;51.134;6.548;2023-02-28T15:19:05;2.80;;;1.95;;
78344;SDS011;67620;51.134;6.548;2023-02-28T15:21:39;4.28;;;2.50;;
78344;SDS011;67620;51.134;6.548;2023-02-28T15:24:23;3.13;;;2.00;;
78344;SDS011;67620;51.134;6.548;2023-02-28T15:26:55;4.28;;;2.20;;
78344;SDS011;67620;51.134;6.548;2023-02-28T15:29:24;5.18;;;2.65;;
78344;SDS011;67620;51.134;6.548;2023-02-28T15:32:04;4.40;;;2.60;;
78344;SDS011;67620;51.134;6.548;2023-02-28T15:39:51;4.85;;;2.50;;
78344;SDS011;67620;51.134;6.548;2023-02-28T15:44:44;4.28;;;2.10;;
78344;SDS011;67620;51.134;6.548;2023-02-28T15:47:20;4.05;;;2.30;;
78344;SDS011;67620;51.134;6.548;2023-02-28T15:49:49;3.85;;;2.55;;
78344;SDS011;67620;51.134;6.548;2023-02-28T15:54:58;4.35;;;2.70;;
78344;SDS011;67620;51.134;6.548;2023-02-28T15:57:32;4.88;;;2.70;;
78344;SDS011;67620;51.134;6.548;2023-02-28T15:59:59;3.20;;;2.30;;
78344;SDS011;67620;51.134;6.548;2023-02-28T16:02:32;4.72;;;2.28;;
78344;SDS011;67620;51.134;6.548;2023-02-28T16:07:31;4.10;;;2.50;;
78344;SDS011;67620;51.134;6.548;2023-02-28T16:09:58;2.78;;;2.30;;
78344;SDS011;67620;51.134;6.548;2023-02-28T16:12:25;4.93;;;2.50;;
78344;SDS011;67620;51.134;6.548;2023-02-28T16:14:56;4.55;;;2.42;;
78344;SDS011;67620;51.134;6.548;2023-02-28T16:17:27;3.33;;;2.50;;
78344;SDS011;67620;51.134;6.548;2023-02-28T16:19:55;4.45;;;2.83;;
78344;SDS011;67620;51.134;6.548;2023-02-28T16:22:21;4.00;;;2.72;;
78344;SDS011;67620;51.134;6.548;2023-02-28T16:24:46;3.10;;;2.45;;
78344;SDS011;67620;51.134;6.548;2023-02-28T16:27:25;4.03;;;2.50;;
78344;SDS011;67620;51.134;6.548;2023-02-28T16:29:55;4.45;;;2.70;;
78344;SDS011;67620;51.134;6.548;2023-02-28T16:32:20;6.85;;;2.70;;
78344;SDS011;67620;51.134;6.548;2023-02-28T16:34:46;3.90;;;2.83;;
78344;SDS011;67620;51.134;6.548;2023-02-28T16:37:13;4.22;;;2.60;;
78344;SDS011;67620;51.134;6.548;2023-02-28T16:39:41;4.63;;;2.75;;
78344;SDS011;67620;51.134;6.548;2023-02-28T16:42:10;4.07;;;2.65;;
78344;SDS011;67620;51.134;6.548;2023-02-28T16:44:40;4.15;;;2.67;;
78344;SDS011;67620;51.134;6.548;2023-02-28T16:47:08;4.65;;;2.83;;
78344;SDS011;67620;51.134;6.548;2023-02-28T16:49:35;10.50;;;2.60;;
78344;SDS011;67620;51.134;6.548;2023-02-28T16:52:01;4.80;;;2.95;;
78344;SDS011;67620;51.134;6.548;2023-02-28T16:54:26;6.32;;;3.28;;
78344;SDS011;67620;51.134;6.548;2023-02-28T16:56:52;4.07;;;2.80;;
78344;SDS011;67620;51.134;6.548;2023-02-28T16:59:24;5.15;;;2.75;;
78344;SDS011;67620;51.134;6.548;2023-02-28T17:01:52;6.35;;;3.33;;
78344;SDS011;67620;51.134;6.548;2023-02-28T17:04:18;5.25;;;2.97;;
78344;SDS011;67620;51.134;6.548;2023-02-28T17:06:44;5.18;;;3.08;;
78344;SDS011;67620;51.134;6.548;2023-02-28T17:09:14;6.82;;;3.50;;
78344;SDS011;67620;51.134;6.548;2023-02-28T17:11:45;5.75;;;3.25;;
78344;SDS011;67620;51.134;6.548;2023-02-28T17:14:11;4.88;;;3.72;;
78344;SDS011;67620;51.134;6.548;2023-02-28T17:16:37;4.75;;;3.03;;
78344;SDS011;67620;51.134;6.548;2023-02-28T17:19:13;5.45;;;3.15;;
78344;SDS011;67620;51.134;6.548;2023-02-28T17:21:41;3.70;;;3.28;;
78344;SDS011;67620;51.134;6.548;2023-02-28T17:24:07;6.45;;;3.50;;
78344;SDS011;67620;51.134;6.548;2023-02-28T17:26:34;4.57;;;2.85;;
78344;SDS011;67620;51.134;6.548;2023-02-28T17:28:59;6.78;;;3.03;;
78344;SDS011;67620;51.134;6.548;2023-02-28T17:31:25;4.13;;;3.38;;
78344;SDS011;67620;51.134;6.548;2023-02-28T17:33:52;3.95;;;3.15;;
78344;SDS011;67620;51.134;6.548;2023-02-28T17:36:22;5.20;;;3.33;;
78344;SDS011;67620;51.134;6.548;2023-02-28T17:38:50;4.50;;;3.25;;